Time;durP1;ratioP1;P1;durP2;ratioP2;P2;SDS_P1;SDS_P2;PMS_P1;PMS_P2;Temp;Humidity;BMP_temperature;BMP_pressure;BME280_temperature;BME280_humidity;BME280_pressure;Samples;Min_cycle;Max_cycle;Signal;HPM_P1;HPM_P2
2023/01/22 00:00:22;;;;;;;11.60;7.38;;;;;;;;;;6149140;23;20494;-66
2023/01/22 00:02:49;;;;;;;9.88;5.80;;;;;;;;;;6148121;23;20106;-64
2023/01/22 00:05:17;;;;;;;10.50;6.90;;;;;;;;;;6148518;23;20025;-62
2023/01/22 00:07:50;;;;;;;11.70;6.97;;;;;;;;;;6148372;23;20028;-62
2023/01/22 00:10:17;;;;;;;10.10;7.15;;;;;;;;;;6148506;23;20060;-59
2023/01/22 00:12:58;;;;;;;8.82;5.95;;;;;;;;;;6148408;23;20105;-60
2023/01/22 00:15:25;;;;;;;8.63;6.25;;;;;;;;;;6148526;23;20562;-59
2023/01/22 00:17:59;;;;;;;10.05;6.93;;;;;;;;;;6147876;23;20101;-58
2023/01/22 00:20:33;;;;;;;11.32;7.20;;;;;;;;;;6149691;23;20388;-60
2023/01/22 00:23:00;;;;;;;9.82;7.40;;;;;;;;;;6148781;23;20028;-59
2023/01/22 00:25:27;;;;;;;10.00;7.43;;;;;;;;;;6148324;23;20382;-61
2023/01/22 00:28:01;;;;;;;10.27;7.78;;;;;;;;;;6124523;23;20096;-61
2023/01/22 00:30:28;;;;;;;12.68;8.05;;;;;;;;;;6148680;23;20333;-69
2023/01/22 00:33:02;;;;;;;12.68;8.00;;;;;;;;;;6148862;23;20104;-48
2023/01/22 00:35:29;;;;;;;10.50;7.38;;;;;;;;;;6149136;23;20433;-50
2023/01/22 00:37:57;;;;;;;10.52;7.25;;;;;;;;;;6149216;23;20037;-49
2023/01/22 00:40:31;;;;;;;12.15;7.88;;;;;;;;;;6149390;23;20057;-50
2023/01/22 00:42:58;;;;;;;9.98;6.85;;;;;;;;;;6147492;23;20069;-52
2023/01/22 00:45:32;;;;;;;10.60;7.78;;;;;;;;;;6147966;23;20033;-52
2023/01/22 00:48:00;;;;;;;11.90;8.02;;;;;;;;;;6148675;23;20025;-53
2023/01/22 00:50:27;;;;;;;;;;;;;;;;;;6149927;23;20104;-73
2023/01/22 00:53:02;;;;;;;11.07;8.10;;;;;;;;;;6149271;23;20022;-72
2023/01/22 00:55:30;;;;;;;11.27;7.20;;;;;;;;;;6148883;23;20678;-73
2023/01/22 00:58:03;;;;;;;10.25;7.45;;;;;;;;;;6149408;23;20022;-73
2023/01/22 01:00:30;;;;;;;10.70;8.48;;;;;;;;;;6147712;23;20104;-73
2023/01/22 01:05:50;;;;;;;12.88;7.43;;;;;;;;;;6149860;23;20045;-62
2023/01/22 01:08:17;;;;;;;10.32;7.22;;;;;;;;;;6151540;23;20097;-74
2023/01/22 01:10:44;;;;;;;16.63;8.10;;;;;;;;;;6149455;23;20569;-74
2023/01/22 01:13:25;;;;;;;10.95;7.68;;;;;;;;;;6150637;23;20459;-73
2023/01/22 01:16:03;;;;;;;10.23;6.80;;;;;;;;;;6148933;23;20100;-75
2023/01/22 01:18:37;;;;;;;12.35;7.05;;;;;;;;;;6149586;23;20044;-74
2023/01/22 01:21:06;;;;;;;12.30;7.40;;;;;;;;;;6150935;23;20018;-75
2023/01/22 01:23:41;;;;;;;10.88;7.63;;;;;;;;;;6149988;23;20028;-60
2023/01/22 01:26:10;;;;;;;12.02;7.35;;;;;;;;;;6151043;23;20025;-46
2023/01/22 01:28:44;;;;;;;11.18;7.60;;;;;;;;;;6149590;23;20547;-46
2023/01/22 01:31:12;;;;;;;10.50;7.38;;;;;;;;;;6150589;23;20026;-47
2023/01/22 01:33:40;;;;;;;12.23;8.00;;;;;;;;;;6149342;23;20025;-48
2023/01/22 01:36:18;;;;;;;12.63;8.23;;;;;;;;;;6149463;23;20022;-48
2023/01/22 01:39:06;;;;;;;10.63;7.30;;;;;;;;;;6148916;23;20022;-48
2023/01/22 01:41:39;;;;;;;13.90;7.63;;;;;;;;;;6149021;23;20410;-69
2023/01/22 01:44:11;;;;;;;11.88;6.13;;;;;;;;;;6149901;23;20064;-69
2023/01/22 01:46:47;;;;;;;11.30;7.70;;;;;;;;;;6149197;23;20068;-62
2023/01/22 01:49:24;;;;;;;14.32;7.32;;;;;;;;;;6146866;23;20032;-63
2023/01/22 01:52:00;;;;;;;14.55;8.43;;;;;;;;;;6150439;23;20795;-64
2023/01/22 01:54:28;;;;;;;9.95;6.15;;;;;;;;;;6149276;23;20384;-62
2023/01/22 01:57:04;;;;;;;7.60;5.47;;;;;;;;;;6150068;23;20064;-63
2023/01/22 01:59:38;;;;;;;11.25;7.70;;;;;;;;;;6150615;23;20025;-60
2023/01/22 02:02:05;;;;;;;11.00;7.90;;;;;;;;;;6150082;23;20029;-59
2023/01/22 02:04:39;;;;;;;11.05;7.40;;;;;;;;;;6149034;23;20026;-60
2023/01/22 02:07:06;;;;;;;13.25;8.95;;;;;;;;;;6149176;23;20060;-60
2023/01/22 02:09:40;;;;;;;13.23;7.50;;;;;;;;;;6149418;23;20093;-60
2023/01/22 02:12:15;;;;;;;11.10;7.57;;;;;;;;;;6148322;23;20026;-60
2023/01/22 02:14:49;;;;;;;12.40;8.07;;;;;;;;;;6148671;23;20018;-60
2023/01/22 02:17:16;;;;;;;;;;;;;;;;;;6149780;23;20032;-59
2023/01/22 02:19:43;;;;;;;11.93;7.88;;;;;;;;;;6149532;23;19916;-60
2023/01/22 02:22:19;;;;;;;12.15;8.48;;;;;;;;;;6148797;23;20108;-60
2023/01/22 02:24:46;;;;;;;13.45;8.70;;;;;;;;;;6122870;23;20057;-60
2023/01/22 02:27:20;;;;;;;13.57;8.98;;;;;;;;;;6150842;23;20022;-60
2023/01/22 02:29:47;;;;;;;;;;;;;;;;;;6150662;23;20096;-61
2023/01/22 02:32:28;;;;;;;14.75;8.73;;;;;;;;;;6149421;23;20315;-60
2023/01/22 02:35:02;;;;;;;15.20;8.75;;;;;;;;;;6148531;23;20494;-60
2023/01/22 02:37:30;;;;;;;12.90;8.63;;;;;;;;;;6149887;23;20108;-60
2023/01/22 02:40:04;;;;;;;15.23;8.75;;;;;;;;;;6149422;23;20028;-60
2023/01/22 02:42:31;;;;;;;13.30;8.52;;;;;;;;;;6148704;23;20049;-60
2023/01/22 02:44:58;;;;;;;14.02;8.68;;;;;;;;;;6149056;23;20104;-60
2023/01/22 02:47:34;;;;;;;11.25;7.72;;;;;;;;;;6150136;23;20351;-60
2023/01/22 02:50:02;;;;;;;13.30;8.75;;;;;;;;;;6150874;23;20387;-60
2023/01/22 02:52:36;;;;;;;12.75;8.40;;;;;;;;;;6149075;23;20052;-60
2023/01/22 02:55:04;;;;;;;13.43;9.00;;;;;;;;;;6149503;23;20104;-50
2023/01/22 02:57:31;;;;;;;12.70;8.23;;;;;;;;;;6149132;23;20096;-59
2023/01/22 03:00:05;;;;;;;13.32;8.30;;;;;;;;;;6149526;23;20036;-53
2023/01/22 03:02:32;;;;;;;;;;;;;;;;;;6149014;23;20017;-50
2023/01/22 03:05:06;;;;;;;13.00;8.10;;;;;;;;;;6148212;23;19916;-50
2023/01/22 03:07:43;;;;;;;10.40;5.45;;;;;;;;;;6148921;23;20018;-55
2023/01/22 03:10:18;;;;;;;11.70;7.90;;;;;;;;;;6150107;23;20022;-54
2023/01/22 03:21:24;;;;;;;13.65;8.88;;;;;;;;;;6147312;23;20021;-47
2023/01/22 03:23:52;;;;;;;14.73;9.65;;;;;;;;;;6149142;23;20371;-45
2023/01/22 03:26:21;;;;;;;13.68;9.30;;;;;;;;;;6148499;23;20025;-45
2023/01/22 03:28:54;;;;;;;19.45;9.55;;;;;;;;;;6148832;23;20026;-48
2023/01/22 03:31:21;;;;;;;16.95;9.90;;;;;;;;;;6147910;23;20060;-46
2023/01/22 03:33:55;;;;;;;16.90;9.95;;;;;;;;;;6149063;23;20619;-58
2023/01/22 03:36:23;;;;;;;14.48;9.63;;;;;;;;;;6146527;23;20026;-69
2023/01/22 03:38:50;;;;;;;16.15;10.13;;;;;;;;;;6150100;23;20132;-68
2023/01/22 03:41:24;;;;;;;14.75;9.38;;;;;;;;;;6147227;23;20025;-69
2023/01/22 03:43:52;;;;;;;19.45;9.88;;;;;;;;;;6148950;23;20105;-68
2023/01/22 03:46:26;;;;;;;16.45;9.93;;;;;;;;;;6149036;23;20080;-68
2023/01/22 03:48:54;;;;;;;15.23;10.57;;;;;;;;;;6148246;23;20069;-68
2023/01/22 03:51:21;;;;;;;15.25;9.85;;;;;;;;;;6148491;23;20059;-45
2023/01/22 03:53:55;;;;;;;18.52;11.30;;;;;;;;;;6148627;23;20096;-69
2023/01/22 03:56:23;;;;;;;16.90;10.85;;;;;;;;;;6145888;23;20410;-68
2023/01/22 03:58:56;;;;;;;15.95;10.35;;;;;;;;;;6148769;23;20029;-67
2023/01/22 04:01:24;;;;;;;15.75;10.13;;;;;;;;;;6149564;23;20026;-68
2023/01/22 04:03:52;;;;;;;15.48;10.13;;;;;;;;;;6148109;23;20021;-68
2023/01/22 04:06:26;;;;;;;19.40;10.85;;;;;;;;;;6145760;23;20702;-67
2023/01/22 04:08:54;;;;;;;16.33;10.60;;;;;;;;;;6148891;23;20438;-55
2023/01/22 04:11:35;;;;;;;16.95;10.00;;;;;;;;;;6147251;23;20026;-55
2023/01/22 04:14:09;;;;;;;16.95;10.27;;;;;;;;;;6148916;23;20101;-47
2023/01/22 04:16:42;;;;;;;17.88;10.23;;;;;;;;;;6148656;23;20088;-51
2023/01/22 04:19:16;;;;;;;17.52;10.15;;;;;;;;;;6148101;23;20048;-54
2023/01/22 04:21:43;;;;;;;17.73;10.30;;;;;;;;;;6147899;23;20026;-53
2023/01/22 04:24:11;;;;;;;16.83;11.13;;;;;;;;;;6149130;23;20795;-51
2023/01/22 04:26:45;;;;;;;17.15;10.10;;;;;;;;;;6147826;23;20070;-44
2023/01/22 04:29:12;;;;;;;13.57;7.75;;;;;;;;;;6147026;23;20096;-59
2023/01/22 04:31:39;;;;;;;16.17;8.90;;;;;;;;;;6147701;23;20101;-57
2023/01/22 04:34:13;;;;;;;13.93;7.32;;;;;;;;;;6149404;23;20522;-58
2023/01/22 04:36:40;;;;;;;16.30;9.50;;;;;;;;;;6147642;23;20021;-58
2023/01/22 04:39:14;;;;;;;15.13;9.30;;;;;;;;;;6150254;23;20101;-59
2023/01/22 04:41:41;;;;;;;19.63;11.23;;;;;;;;;;6150441;23;20100;-59
2023/01/22 04:44:08;;;;;;;21.30;11.30;;;;;;;;;;6150564;23;20411;-58
2023/01/22 04:46:42;;;;;;;18.92;10.65;;;;;;;;;;6148775;23;20152;-62
2023/01/22 04:49:09;;;;;;;18.05;10.98;;;;;;;;;;6150683;23;20025;-69
2023/01/22 04:51:43;;;;;;;22.20;11.45;;;;;;;;;;6148488;23;20093;-67
2023/01/22 04:54:10;;;;;;;19.98;10.95;;;;;;;;;;6149901;23;20069;-68
2023/01/22 04:56:37;;;;;;;21.92;11.95;;;;;;;;;;6149700;23;20527;-68
2023/01/22 04:59:11;;;;;;;14.75;8.00;;;;;;;;;;6151489;23;20021;-69
2023/01/22 05:01:38;;;;;;;19.42;11.15;;;;;;;;;;6148893;23;20061;-67
2023/01/22 05:04:12;;;;;;;20.10;11.05;;;;;;;;;;6125819;23;20085;-47
2023/01/22 05:06:40;;;;;;;23.60;11.75;;;;;;;;;;6149014;23;20479;-47
2023/01/22 05:09:07;;;;;;;15.98;8.18;;;;;;;;;;6148946;23;20102;-46
2023/01/22 05:11:48;;;;;;;15.45;9.15;;;;;;;;;;6149605;23;20422;-48
2023/01/22 05:14:22;;;;;;;17.17;9.80;;;;;;;;;;6151021;23;20021;-46
2023/01/22 05:16:56;;;;;;;17.02;10.13;;;;;;;;;;6150535;23;20087;-48
2023/01/22 05:19:23;;;;;;;10.45;6.28;;;;;;;;;;6150291;23;20021;-45
2023/01/22 05:21:50;;;;;;;;;;;;;;;;;;6150201;23;20025;-57
2023/01/22 05:24:24;;;;;;;17.48;9.45;;;;;;;;;;6150434;23;19943;-74
2023/01/22 05:26:51;;;;;;;18.48;10.25;;;;;;;;;;6149390;23;20025;-58
2023/01/22 05:29:26;;;;;;;19.80;10.60;;;;;;;;;;6149510;23;20017;-58
2023/01/22 05:31:53;;;;;;;18.25;10.43;;;;;;;;;;6149530;23;20081;-57
2023/01/22 05:34:20;;;;;;;19.40;11.27;;;;;;;;;;6150762;23;20635;-58
2023/01/22 05:36:54;;;;;;;19.85;11.13;;;;;;;;;;6148723;23;20100;-58
2023/01/22 05:39:21;;;;;;;28.40;11.45;;;;;;;;;;6150596;23;20021;-58
2023/01/22 05:41:55;;;;;;;21.65;11.88;;;;;;;;;;6150227;23;20029;-49
2023/01/22 05:44:22;;;;;;;29.35;11.43;;;;;;;;;;6151522;23;20025;-54
2023/01/22 05:46:50;;;;;;;22.77;11.45;;;;;;;;;;6149918;23;20021;-51
2023/01/22 05:49:23;;;;;;;19.73;10.88;;;;;;;;;;6149618;23;20018;-54
2023/01/22 05:51:50;;;;;;;19.05;10.52;;;;;;;;;;6148606;23;20127;-52
2023/01/22 05:54:24;;;;;;;20.85;11.85;;;;;;;;;;6149755;23;20028;-51
2023/01/22 05:56:51;;;;;;;22.92;11.75;;;;;;;;;;6148918;23;20400;-52
2023/01/22 05:59:18;;;;;;;21.08;11.10;;;;;;;;;;6150831;23;20096;-52
2023/01/22 06:01:53;;;;;;;20.90;10.82;;;;;;;;;;6148634;23;20064;-51
2023/01/22 06:04:20;;;;;;;18.73;10.63;;;;;;;;;;6148498;23;20022;-52
2023/01/22 06:06:47;;;;;;;22.92;11.45;;;;;;;;;;6149108;23;20108;-51
2023/01/22 06:09:21;;;;;;;22.80;10.95;;;;;;;;;;6149261;23;20486;-54
2023/01/22 06:11:48;;;;;;;26.58;11.43;;;;;;;;;;6148391;23;20100;-53
2023/01/22 06:14:22;;;;;;;21.10;10.98;;;;;;;;;;6150341;23;20105;-52
2023/01/22 06:16:49;;;;;;;17.38;9.98;;;;;;;;;;6148683;23;20040;-48
2023/01/22 06:19:23;;;;;;;21.80;10.38;;;;;;;;;;6149066;23;20104;-58
2023/01/22 06:21:50;;;;;;;17.73;10.45;;;;;;;;;;6147147;23;20084;-51
2023/01/22 06:24:17;;;;;;;18.02;8.85;;;;;;;;;;6150589;23;20555;-49
2023/01/22 06:26:51;;;;;;;16.73;8.70;;;;;;;;;;6149283;23;20104;-50
2023/01/22 06:29:18;;;;;;;15.88;9.30;;;;;;;;;;6149257;23;20029;-54
2023/01/22 06:31:52;;;;;;;21.60;9.15;;;;;;;;;;6149343;23;20021;-49
2023/01/22 06:34:19;;;;;;;20.35;8.98;;;;;;;;;;6150509;23;20024;-50
2023/01/22 06:36:46;;;;;;;19.38;9.77;;;;;;;;;;6146735;23;20025;-47
2023/01/22 06:39:20;;;;;;;32.65;10.25;;;;;;;;;;6148818;23;20021;-52
2023/01/22 06:41:47;;;;;;;20.85;10.35;;;;;;;;;;6148608;23;20030;-53
2023/01/22 06:44:22;;;;;;;19.70;10.80;;;;;;;;;;6150755;23;20026;-50
2023/01/22 06:46:49;;;;;;;21.00;10.30;;;;;;;;;;6148795;23;20394;-54
2023/01/22 06:49:16;;;;;;;28.98;11.55;;;;;;;;;;6148730;23;20025;-49
2023/01/22 06:51:50;;;;;;;19.10;10.30;;;;;;;;;;6147669;23;20515;-51
2023/01/22 06:54:17;;;;;;;17.90;9.98;;;;;;;;;;6149449;23;20053;-68
2023/01/22 06:56:51;;;;;;;16.67;9.75;;;;;;;;;;6148936;23;20104;-63
2023/01/22 06:59:18;;;;;;;14.82;8.65;;;;;;;;;;6148510;23;20496;-62
2023/01/22 07:01:45;;;;;;;13.63;7.85;;;;;;;;;;6148843;23;20049;-62
2023/01/22 07:04:19;;;;;;;12.43;6.80;;;;;;;;;;6148731;23;20017;-62
2023/01/22 07:06:46;;;;;;;10.35;5.68;;;;;;;;;;6146283;23;20105;-63
2023/01/22 07:09:20;;;;;;;17.15;8.15;;;;;;;;;;6146521;23;20352;-62
2023/01/22 07:11:56;;;;;;;17.35;9.40;;;;;;;;;;6121232;23;20025;-62
2023/01/22 07:14:37;;;;;;;16.65;8.63;;;;;;;;;;6150195;23;20053;-49
2023/01/22 07:17:04;;;;;;;19.50;10.43;;;;;;;;;;6149949;23;20032;-49
2023/01/22 07:19:38;;;;;;;23.13;11.32;;;;;;;;;;6148290;23;20024;-47
2023/01/22 07:22:12;;;;;;;22.95;11.98;;;;;;;;;;6148272;23;20024;-48
2023/01/22 07:24:39;;;;;;;21.58;10.57;;;;;;;;;;6149266;23;20029;-47
2023/01/22 07:27:13;;;;;;;26.63;11.93;;;;;;;;;;6147682;23;20467;-49
2023/01/22 07:29:40;;;;;;;17.58;7.10;;;;;;;;;;6147933;23;20022;-49
2023/01/22 07:32:07;;;;;;;45.45;12.70;;;;;;;;;;6148773;23;20080;-48
2023/01/22 07:34:41;;;;;;;19.00;10.43;;;;;;;;;;6149735;23;20027;-73
2023/01/22 07:37:09;;;;;;;22.75;11.05;;;;;;;;;;6148416;23;20021;-73
2023/01/22 07:39:43;;;;;;;21.45;11.07;;;;;;;;;;6148361;23;20060;-73
2023/01/22 07:42:11;;;;;;;25.08;11.68;;;;;;;;;;6149082;23;20097;-74
2023/01/22 07:44:41;;;;;;;20.58;11.55;;;;;;;;;;6148397;23;20057;-73
2023/01/22 07:47:15;;;;;;;21.88;11.82;;;;;;;;;;6146837;23;20104;-73
2023/01/22 07:49:42;;;;;;;22.00;10.48;;;;;;;;;;6148297;23;20475;-48
2023/01/22 07:52:09;;;;;;;23.52;11.57;;;;;;;;;;6148155;23;20642;-60
2023/01/22 07:54:43;;;;;;;25.42;11.27;;;;;;;;;;6147920;23;20021;-60
2023/01/22 07:57:14;;;;;;;25.35;10.68;;;;;;;;;;6149546;23;20104;-60
2023/01/22 07:59:48;;;;;;;;;;;;;;;;;;6147941;23;20706;-60
2023/01/22 08:02:16;;;;;;;23.20;10.85;;;;;;;;;;6147069;23;20511;-59
2023/01/22 08:04:43;;;;;;;23.98;12.05;;;;;;;;;;6147468;23;20030;-59
2023/01/22 08:07:18;;;;;;;25.55;11.73;;;;;;;;;;6147579;23;20076;-63
2023/01/22 08:09:45;;;;;;;21.95;10.70;;;;;;;;;;6147962;23;20021;-61
2023/01/22 08:12:12;;;;;;;24.10;11.45;;;;;;;;;;6147975;23;20113;-69
2023/01/22 08:14:46;;;;;;;16.85;9.48;;;;;;;;;;6145447;23;20351;-69
2023/01/22 08:17:13;;;;;;;23.95;11.93;;;;;;;;;;6149464;23;20113;-69
2023/01/22 08:19:47;;;;;;;20.25;10.38;;;;;;;;;;6148561;23;20108;-68
2023/01/22 08:22:14;;;;;;;25.55;11.95;;;;;;;;;;6149827;23;20140;-68
2023/01/22 08:24:41;;;;;;;;;;;;;;;;;;6149929;23;20157;-68
2023/01/22 08:27:15;;;;;;;21.83;10.90;;;;;;;;;;6147863;23;19926;-68
2023/01/22 08:29:42;;;;;;;24.90;10.98;;;;;;;;;;6147791;23;20052;-57
2023/01/22 08:32:17;;;;;;;25.92;11.60;;;;;;;;;;6148013;23;20104;-59
2023/01/22 08:34:45;;;;;;;25.20;8.35;;;;;;;;;;6147491;23;20490;-57
2023/01/22 08:37:12;;;;;;;32.28;13.82;;;;;;;;;;6145468;23;20057;-59
2023/01/22 08:39:46;;;;;;;27.98;12.35;;;;;;;;;;6144683;23;20021;-57
2023/01/22 08:42:13;;;;;;;25.90;12.52;;;;;;;;;;6145305;23;20057;-59
2023/01/22 08:44:47;;;;;;;24.02;11.45;;;;;;;;;;6148472;23;20051;-60
2023/01/22 08:47:14;;;;;;;22.95;11.60;;;;;;;;;;6147286;23;20355;-47
2023/01/22 08:49:41;;;;;;;24.23;12.90;;;;;;;;;;6145897;23;20472;-52
2023/01/22 08:52:15;;;;;;;26.70;12.02;;;;;;;;;;6146302;23;20490;-47
2023/01/22 08:54:42;;;;;;;24.90;10.98;;;;;;;;;;6143467;23;20108;-48
2023/01/22 08:57:16;;;;;;;28.85;13.07;;;;;;;;;;6147245;23;20021;-48
2023/01/22 08:59:43;;;;;;;29.88;12.68;;;;;;;;;;6146568;23;20022;-50
2023/01/22 09:02:26;;;;;;;28.02;11.80;;;;;;;;;;6125039;23;20052;-45
2023/01/22 09:05:00;;;;;;;48.85;12.98;;;;;;;;;;6146584;23;20190;-49
2023/01/22 09:07:27;;;;;;;36.33;12.50;;;;;;;;;;6146418;23;20180;-48
2023/01/22 09:10:02;;;;;;;24.15;11.65;;;;;;;;;;6148150;23;20096;-51
2023/01/22 09:12:36;;;;;;;68.55;12.88;;;;;;;;;;6144646;23;20105;-55
2023/01/22 09:15:17;;;;;;;23.83;10.43;;;;;;;;;;6146654;23;20031;-51
2023/01/22 09:17:44;;;;;;;21.88;9.93;;;;;;;;;;6145941;23;20080;-53
2023/01/22 09:20:18;;;;;;;26.38;11.07;;;;;;;;;;6145420;23;20026;-53
2023/01/22 09:22:46;;;;;;;26.00;12.18;;;;;;;;;;6146502;23;20031;-48
2023/01/22 09:25:14;;;;;;;21.65;10.52;;;;;;;;;;6146674;23;20479;-48
2023/01/22 09:27:48;;;;;;;25.88;9.80;;;;;;;;;;6148375;23;20053;-46
2023/01/22 09:30:15;;;;;;;32.92;10.82;;;;;;;;;;6150089;23;20063;-49
2023/01/22 09:32:49;;;;;;;25.98;10.77;;;;;;;;;;6151285;23;20108;-47
2023/01/22 09:35:16;;;;;;;26.42;10.98;;;;;;;;;;6148134;23;20049;-48
2023/01/22 09:37:43;;;;;;;14.85;7.45;;;;;;;;;;6148257;23;20058;-52
2023/01/22 09:40:31;;;;;;;21.15;10.00;;;;;;;;;;6147611;23;20030;-44
2023/01/22 09:43:03;;;;;;;20.88;10.45;;;;;;;;;;6135799;23;20519;-60
2023/01/22 09:45:38;;;;;;;23.83;9.80;;;;;;;;;;6142064;23;20059;-61
2023/01/22 09:48:08;;;;;;;30.85;12.77;;;;;;;;;;6141699;23;20538;-60
2023/01/22 09:50:35;;;;;;;24.95;11.20;;;;;;;;;;6146738;23;20492;-60
2023/01/22 09:53:13;;;;;;;23.60;11.07;;;;;;;;;;6145437;23;20479;-60
2023/01/22 09:55:50;;;;;;;21.23;10.30;;;;;;;;;;6146438;23;20112;-60
2023/01/22 09:58:19;;;;;;;20.52;10.25;;;;;;;;;;6147097;23;20104;-58
2023/01/22 10:00:49;;;;;;;20.38;10.43;;;;;;;;;;6147041;23;20105;-62
2023/01/22 10:03:30;;;;;;;19.90;10.35;;;;;;;;;;6149945;23;20045;-62
2023/01/22 10:05:59;;;;;;;18.63;9.63;;;;;;;;;;6150145;23;20025;-62
2023/01/22 10:08:36;;;;;;;23.33;10.63;;;;;;;;;;6147161;23;20081;-63
2023/01/22 10:11:04;;;;;;;19.63;9.68;;;;;;;;;;6147491;23;20123;-62
2023/01/22 10:13:32;;;;;;;17.63;9.18;;;;;;;;;;6147413;23;20104;-62
2023/01/22 10:16:07;;;;;;;19.77;9.85;;;;;;;;;;6147404;23;20132;-45
2023/01/22 10:18:36;;;;;;;20.42;10.88;;;;;;;;;;6149317;23;20420;-60
2023/01/22 10:21:06;;;;;;;19.13;9.68;;;;;;;;;;6149407;23;20109;-50
2023/01/22 10:23:40;;;;;;;20.50;9.52;;;;;;;;;;6146223;23;20402;-52
2023/01/22 10:26:15;;;;;;;17.05;8.85;;;;;;;;;;6149375;23;20052;-48
2023/01/22 10:28:51;;;;;;;19.33;10.25;;;;;;;;;;6148438;23;20029;-52
2023/01/22 10:31:28;;;;;;;19.08;10.05;;;;;;;;;;6147332;23;20018;-49
2023/01/22 10:34:03;;;;;;;17.40;9.48;;;;;;;;;;6147522;23;20025;-50
2023/01/22 10:36:31;;;;;;;18.40;10.07;;;;;;;;;;6148706;23;20100;-73
2023/01/22 10:39:08;;;;;;;17.95;9.23;;;;;;;;;;6148512;23;20031;-72
2023/01/22 10:41:35;;;;;;;18.02;9.82;;;;;;;;;;6146879;23;20104;-73
2023/01/22 10:44:10;;;;;;;18.75;9.73;;;;;;;;;;6148095;23;20084;-72
2023/01/22 10:46:37;;;;;;;16.50;9.52;;;;;;;;;;6121942;23;20108;-72
2023/01/22 10:49:15;;;;;;;20.02;10.13;;;;;;;;;;6149357;23;20784;-72
2023/01/22 10:51:45;;;;;;;16.10;9.00;;;;;;;;;;6145880;23;20448;-73
2023/01/22 10:54:20;;;;;;;12.82;6.93;;;;;;;;;;6148697;23;20021;-58
2023/01/22 10:56:48;;;;;;;13.00;7.18;;;;;;;;;;6147237;23;20036;-62
2023/01/22 10:59:23;;;;;;;13.30;7.93;;;;;;;;;;6142465;23;20032;-63
2023/01/22 11:01:56;;;;;;;17.48;8.43;;;;;;;;;;6148357;23;20104;-63
2023/01/22 11:04:32;;;;;;;14.05;7.50;;;;;;;;;;6145777;23;20021;-62
2023/01/22 11:07:05;;;;;;;15.73;8.80;;;;;;;;;;6145867;23;20120;-62
2023/01/22 11:09:41;;;;;;;15.82;8.70;;;;;;;;;;6149052;23;20030;-65
2023/01/22 11:12:20;;;;;;;18.00;9.10;;;;;;;;;;6148212;23;20332;-73
2023/01/22 11:15:04;;;;;;;17.83;8.80;;;;;;;;;;6147225;23;20637;-51
2023/01/22 11:17:43;;;;;;;15.75;8.23;;;;;;;;;;6147128;23;20021;-53
2023/01/22 11:20:43;;;;;;;15.25;8.70;;;;;;;;;;6147335;23;20053;-50
2023/01/22 11:23:10;;;;;;;17.45;8.77;;;;;;;;;;6147889;23;20408;-51
2023/01/22 11:25:44;;;;;;;17.27;8.73;;;;;;;;;;6147570;23;20363;-51
2023/01/22 11:28:23;;;;;;;16.65;8.88;;;;;;;;;;6146621;23;20372;-53
2023/01/22 11:30:57;;;;;;;16.67;9.07;;;;;;;;;;6147060;23;20021;-59
2023/01/22 11:33:42;;;;;;;15.25;8.68;;;;;;;;;;6148185;23;20060;-74
2023/01/22 11:36:21;;;;;;;16.23;9.07;;;;;;;;;;6147739;23;20100;-76
2023/01/22 11:38:52;;;;;;;15.90;8.57;;;;;;;;;;6148105;23;20101;-77
2023/01/22 11:41:39;;;;;;;16.70;9.35;;;;;;;;;;6147310;23;20100;-76
2023/01/22 11:44:06;;;;;;;15.70;8.90;;;;;;;;;;6147135;23;20355;-74
2023/01/22 11:46:40;;;;;;;15.15;8.75;;;;;;;;;;6138926;23;20100;-75
2023/01/22 11:49:10;;;;;;;13.93;8.07;;;;;;;;;;6147615;23;20041;-70
2023/01/22 11:51:47;;;;;;;14.10;7.97;;;;;;;;;;6141491;23;20026;-48
2023/01/22 11:54:20;;;;;;;13.45;8.27;;;;;;;;;;6147760;23;20100;-49
2023/01/22 11:57:09;;;;;;;14.68;8.27;;;;;;;;;;6145546;23;20057;-49
2023/01/22 11:59:41;;;;;;;15.98;8.50;;;;;;;;;;6148224;23;20501;-52
2023/01/22 12:02:25;;;;;;;15.15;7.95;;;;;;;;;;6147349;23;20550;-48
2023/01/22 12:05:22;;;;;;;14.95;7.82;;;;;;;;;;6147990;23;20034;-49
2023/01/22 12:08:01;;;;;;;16.92;8.27;;;;;;;;;;6145432;23;20117;-76
2023/01/22 12:10:41;;;;;;;17.13;9.40;;;;;;;;;;6148194;23;20027;-51
2023/01/22 12:13:11;;;;;;;13.32;7.80;;;;;;;;;;6146478;23;20109;-54
2023/01/22 12:16:10;;;;;;;15.52;8.20;;;;;;;;;;6147973;23;20044;-49
2023/01/22 12:18:40;;;;;;;13.27;7.65;;;;;;;;;;6147081;23;20025;-51
2023/01/22 12:21:31;;;;;;;16.05;7.82;;;;;;;;;;6147061;23;20025;-52
2023/01/22 12:24:14;;;;;;;13.05;8.20;;;;;;;;;;6147040;23;20109;-51
2023/01/22 12:26:53;;;;;;;16.40;8.25;;;;;;;;;;6147627;23;20393;-64
2023/01/22 12:29:41;;;;;;;15.18;8.30;;;;;;;;;;6147904;23;20021;-48
2023/01/22 12:32:17;;;;;;;15.50;9.27;;;;;;;;;;6148595;23;20100;-49
2023/01/22 12:34:48;;;;;;;13.20;8.00;;;;;;;;;;6149335;23;20049;-50
2023/01/22 12:37:24;;;;;;;14.48;8.48;;;;;;;;;;6145952;23;20430;-49
2023/01/22 12:39:51;;;;;;;14.05;8.75;;;;;;;;;;6147302;23;20075;-49
2023/01/22 12:42:33;;;;;;;13.48;8.23;;;;;;;;;;6147661;23;20025;-47
2023/01/22 12:45:10;;;;;;;12.98;7.90;;;;;;;;;;6148360;23;20347;-59
2023/01/22 12:47:50;;;;;;;16.38;8.88;;;;;;;;;;6145429;23;20026;-59
2023/01/22 12:50:19;;;;;;;14.65;8.27;;;;;;;;;;6148130;23;20415;-58
2023/01/22 12:52:58;;;;;;;14.65;8.77;;;;;;;;;;6145682;23;20217;-59
2023/01/22 12:55:36;;;;;;;15.32;8.57;;;;;;;;;;6147975;23;20044;-59
2023/01/22 12:58:23;;;;;;;14.27;8.27;;;;;;;;;;6146922;23;20048;-58
2023/01/22 13:01:01;;;;;;;13.18;8.30;;;;;;;;;;6150231;23;20067;-59
2023/01/22 13:03:35;;;;;;;15.48;8.13;;;;;;;;;;6149396;23;20092;-60
2023/01/22 13:06:02;;;;;;;;;;;;;;;;;;6148068;23;20113;-58
2023/01/22 13:08:43;;;;;;;14.70;8.40;;;;;;;;;;6148852;23;19999;-59
2023/01/22 13:11:25;;;;;;;14.90;8.45;;;;;;;;;;6150132;23;20388;-59
2023/01/22 13:14:12;;;;;;;12.60;7.75;;;;;;;;;;6145767;23;20029;-58
2023/01/22 13:16:49;;;;;;;12.93;7.63;;;;;;;;;;6148957;23;20025;-58
2023/01/22 13:19:25;;;;;;;18.30;9.05;;;;;;;;;;6150158;23;20504;-59
2023/01/22 13:21:52;;;;;;;12.50;7.18;;;;;;;;;;6147189;23;20077;-46
2023/01/22 13:24:26;;;;;;;11.90;7.28;;;;;;;;;;6125614;23;20025;-70
2023/01/22 13:26:55;;;;;;;13.63;7.80;;;;;;;;;;6148230;23;20490;-72
2023/01/22 13:29:24;;;;;;;10.82;6.35;;;;;;;;;;6146606;23;20026;-70
2023/01/22 13:31:59;;;;;;;13.25;6.82;;;;;;;;;;6147723;23;20021;-70
2023/01/22 13:34:27;;;;;;;13.65;7.57;;;;;;;;;;6149682;23;20100;-71
2023/01/22 13:37:01;;;;;;;13.43;7.53;;;;;;;;;;6146814;23;20064;-73
2023/01/22 13:39:29;;;;;;;12.73;8.13;;;;;;;;;;6148425;23;20064;-61
2023/01/22 13:42:04;;;;;;;12.90;7.65;;;;;;;;;;6146766;23;20109;-75
2023/01/22 13:44:50;;;;;;;13.90;8.40;;;;;;;;;;6147465;23;20108;-73
2023/01/22 13:47:29;;;;;;;14.27;7.63;;;;;;;;;;6147138;23;20362;-72
2023/01/22 13:49:56;;;;;;;13.52;7.70;;;;;;;;;;6148230;23;20112;-72
2023/01/22 13:52:32;;;;;;;14.27;7.60;;;;;;;;;;6149163;23;20308;-73
2023/01/22 13:54:59;;;;;;;13.00;7.28;;;;;;;;;;6150149;23;20021;-73
2023/01/22 13:57:33;;;;;;;12.82;7.20;;;;;;;;;;6148208;23;20104;-53
2023/01/22 14:00:01;;;;;;;14.07;6.25;;;;;;;;;;6149205;23;20057;-68
2023/01/22 14:02:35;;;;;;;15.32;8.48;;;;;;;;;;6149237;23;20025;-70
2023/01/22 14:05:03;;;;;;;13.88;8.07;;;;;;;;;;6148384;23;20021;-69
2023/01/22 14:07:35;;;;;;;15.02;8.07;;;;;;;;;;6143638;23;20060;-72
2023/01/22 14:10:15;;;;;;;14.70;8.93;;;;;;;;;;6149331;23;20112;-72
2023/01/22 14:13:21;;;;;;;15.48;8.43;;;;;;;;;;6146099;23;20044;-70
2023/01/22 14:15:58;;;;;;;16.75;8.10;;;;;;;;;;6091694;23;20029;-74
2023/01/22 14:18:28;;;;;;;15.65;8.90;;;;;;;;;;6148501;23;20483;-77
2023/01/22 14:21:02;;;;;;;14.87;8.63;;;;;;;;;;6147218;23;20021;-73
2023/01/22 14:23:29;;;;;;;14.15;7.85;;;;;;;;;;6149661;23;20060;-74
2023/01/22 14:25:57;;;;;;;15.13;8.68;;;;;;;;;;6149722;23;20064;-72
2023/01/22 14:28:32;;;;;;;12.43;7.50;;;;;;;;;;6146949;23;20060;-74
2023/01/22 14:30:59;;;;;;;13.75;7.80;;;;;;;;;;6149693;23;20458;-74
2023/01/22 14:33:34;;;;;;;15.45;8.32;;;;;;;;;;6147880;23;20022;-50
2023/01/22 14:36:01;;;;;;;12.80;7.57;;;;;;;;;;6147598;23;20024;-52
2023/01/22 14:38:28;;;;;;;15.45;8.18;;;;;;;;;;6148878;23;20037;-59
2023/01/22 14:41:03;;;;;;;15.38;7.75;;;;;;;;;;6149891;23;20041;-59
2023/01/22 14:43:30;;;;;;;14.93;8.25;;;;;;;;;;6148935;23;20254;-59
2023/01/22 14:46:08;;;;;;;14.07;8.43;;;;;;;;;;6149512;23;20017;-59
2023/01/22 14:48:35;;;;;;;17.92;8.02;;;;;;;;;;6148961;23;20025;-61
2023/01/22 14:51:07;;;;;;;13.70;7.82;;;;;;;;;;6149072;23;20021;-62
2023/01/22 14:53:41;;;;;;;15.52;8.23;;;;;;;;;;6147733;23;20029;-72
2023/01/22 14:56:08;;;;;;;13.65;7.90;;;;;;;;;;6149303;23;20053;-55
2023/01/22 14:58:35;;;;;;;14.25;8.13;;;;;;;;;;6143675;23;20025;-53
2023/01/22 15:01:21;;;;;;;14.45;7.90;;;;;;;;;;6146726;23;20099;-50
2023/01/22 15:03:48;;;;;;;15.40;8.25;;;;;;;;;;6144257;23;20068;-51
2023/01/22 15:06:25;;;;;;;14.20;7.97;;;;;;;;;;6146283;23;20362;-51
2023/01/22 15:08:53;;;;;;;13.55;8.13;;;;;;;;;;6142486;23;20789;-55